Time;durP1;ratioP1;P1;durP2;ratioP2;P2;SDS_P1;SDS_P2;PMS_P1;PMS_P2;Temp;Humidity;BMP_temperature;BMP_pressure;BME280_temperature;BME280_humidity;BME280_pressure;Samples;Min_cycle;Max_cycle;Signal;HPM_P1;HPM_P2
2023/12/23 00:01:12;;;;;;;16.05;3.20;;;8.00;99.90;;;8.07;81.59;99815.66;5076214;28;20041;-84
2023/12/23 00:03:39;;;;;;;15.43;3.33;;;8.00;99.90;;;8.06;81.56;99821.19;5076521;28;20504;-85
2023/12/23 00:06:07;;;;;;;14.18;2.65;;;8.00;99.90;;;8.05;81.67;99814.22;5076159;28;20048;-84
2023/12/23 00:08:34;;;;;;;14.20;3.17;;;8.00;99.90;;;8.02;81.61;99815.47;5075795;28;20463;-84
2023/12/23 00:11:01;;;;;;;13.90;2.72;;;8.00;99.90;;;8.00;81.40;99814.84;5075692;28;20033;-84
2023/12/23 00:13:29;;;;;;;17.48;2.78;;;8.00;99.90;;;7.97;81.84;99818.75;5074055;28;20056;-84
2023/12/23 00:15:56;;;;;;;14.15;2.35;;;8.00;99.90;;;8.04;82.11;99813.41;5057596;28;20044;-84
2023/12/23 00:18:25;;;;;;;12.93;2.55;;;8.00;99.90;;;7.97;81.75;99820.59;5074379;28;20033;-84
2023/12/23 00:20:52;;;;;;;12.48;2.38;;;8.00;99.90;;;8.01;82.09;99821.81;5074720;28;20071;-85
2023/12/23 00:23:20;;;;;;;13.57;2.45;;;8.00;99.90;;;8.06;82.01;99824.66;5074418;28;20050;-85
2023/12/23 00:25:48;;;;;;;10.48;2.42;;;8.00;99.90;;;8.07;82.09;99836.09;5057792;28;20080;-85
2023/12/23 00:28:16;;;;;;;13.30;2.45;;;8.00;99.90;;;8.03;82.01;99830.38;5075653;28;20484;-84
2023/12/23 00:30:44;;;;;;;12.77;1.80;;;8.00;99.90;;;8.02;81.96;99833.25;5070701;28;20052;-84
2023/12/23 00:33:11;;;;;;;14.57;2.58;;;8.00;99.90;;;8.03;82.30;99841.00;5070943;28;20500;-84
2023/12/23 00:35:41;;;;;;;8.48;1.80;;;8.00;99.90;;;8.10;82.36;99840.97;5070280;28;20037;-84
2023/12/23 00:38:11;;;;;;;16.05;2.60;;;8.00;99.90;;;8.13;82.20;99846.66;5074128;28;20040;-84
2023/12/23 00:40:40;;;;;;;18.10;2.42;;;8.10;99.90;;;8.09;81.66;99834.03;5073596;28;20044;-85
2023/12/23 00:43:07;;;;;;;12.20;1.88;;;8.10;99.90;;;8.12;81.73;99833.63;5040866;28;20119;-84
2023/12/23 00:45:35;;;;;;;14.55;2.28;;;8.10;99.90;;;8.12;81.72;99837.09;5065744;28;20132;-85
2023/12/23 00:48:03;;;;;;;16.63;2.47;;;8.10;99.90;;;8.13;81.83;99825.44;5095198;28;20056;-85
2023/12/23 00:50:30;;;;;;;15.30;1.98;;;8.10;99.90;;;8.06;81.28;99829.97;5035555;28;20405;-84
2023/12/23 00:53:02;;;;;;;11.70;2.42;;;8.00;99.90;;;8.04;81.72;99834.66;5057265;28;20052;-84
2023/12/23 00:55:29;;;;;;;10.70;1.60;;;8.00;99.90;;;7.98;81.49;99827.53;5073108;28;20507;-85
2023/12/23 00:57:57;;;;;;;16.30;1.95;;;8.00;99.90;;;8.01;81.91;99827.13;5074966;28;20052;-84
2023/12/23 01:00:24;;;;;;;14.55;2.15;;;8.00;99.90;;;7.89;81.57;99826.94;5074895;28;20066;-84
2023/12/23 01:02:53;;;;;;;14.02;1.90;;;8.00;99.90;;;7.90;81.78;99843.69;5072916;28;20072;-84
2023/12/23 01:05:21;;;;;;;13.35;2.10;;;8.00;99.90;;;7.96;81.84;99843.69;5074900;28;20091;-84
2023/12/23 01:07:48;;;;;;;15.13;2.10;;;8.00;99.90;;;8.03;82.33;99848.16;5036354;28;20056;-84
2023/12/23 01:10:21;;;;;;;12.30;2.08;;;8.00;99.90;;;8.07;82.59;99830.78;5048127;28;20041;-85
2023/12/23 01:12:49;;;;;;;8.55;1.60;;;8.00;99.90;;;8.05;82.47;99833.63;5057010;28;20461;-85
2023/12/23 01:15:16;;;;;;;13.90;1.75;;;8.00;99.90;;;8.09;82.59;99834.84;5073276;28;20284;-86
2023/12/23 01:17:44;;;;;;;11.45;2.22;;;8.00;99.90;;;8.11;82.74;99835.47;5072919;28;20470;-84
2023/12/23 01:20:12;;;;;;;8.38;1.85;;;8.10;99.90;;;8.10;82.53;99831.19;5073297;28;20423;-84
2023/12/23 01:22:40;;;;;;;9.25;1.90;;;8.00;99.90;;;8.10;82.50;99833.84;5056770;28;20056;-84
2023/12/23 01:25:08;;;;;;;8.15;1.58;;;8.10;99.90;;;8.06;82.21;99832.63;5073016;28;20044;-85
2023/12/23 01:27:37;;;;;;;10.70;2.10;;;8.00;99.90;;;8.01;82.88;99837.75;5052360;28;20056;-84
2023/12/23 01:30:05;;;;;;;11.73;1.70;;;8.00;99.90;;;7.99;82.48;99839.78;5052539;28;20067;-84
2023/12/23 01:32:33;;;;;;;16.33;2.47;;;7.90;99.90;;;7.96;83.04;99827.75;5056184;28;20048;-84
2023/12/23 01:35:02;;;;;;;10.20;2.10;;;7.90;99.90;;;7.99;83.20;99835.28;5056452;28;20048;-84
2023/12/23 01:37:29;;;;;;;11.98;2.00;;;8.00;99.90;;;8.03;83.15;99835.69;5065397;28;20543;-85
2023/12/23 01:39:56;;;;;;;10.18;1.90;;;8.00;99.90;;;8.07;83.25;99838.75;5036620;28;20064;-85
2023/12/23 01:42:24;;;;;;;14.23;2.38;;;8.00;99.90;;;8.01;82.87;99835.09;5070649;28;20098;-84
2023/12/23 01:44:53;;;;;;;11.60;2.03;;;8.00;99.90;;;7.99;83.22;99845.09;5073895;28;20048;-85
2023/12/23 01:47:21;;;;;;;7.25;1.88;;;7.90;99.90;;;8.07;83.63;99842.22;5056077;28;20571;-84
2023/12/23 01:49:49;;;;;;;12.55;2.15;;;8.00;99.90;;;8.15;83.32;99836.66;5052300;28;20099;-84
2023/12/23 01:52:17;;;;;;;8.63;1.80;;;8.10;99.90;;;8.19;83.02;99834.38;5056201;28;20442;-85
2023/12/23 01:54:45;;;;;;;6.70;1.70;;;8.10;99.90;;;8.21;83.19;99830.50;5074139;28;20071;-84
2023/12/23 01:57:17;;;;;;;9.88;1.70;;;8.10;99.90;;;8.23;82.83;99838.25;5070678;28;20049;-85
2023/12/23 01:59:44;;;;;;;8.47;1.70;;;8.10;99.90;;;8.25;82.93;99838.88;5052282;28;20049;-85
2023/12/23 02:02:14;;;;;;;8.60;1.60;;;8.10;99.90;;;8.27;82.81;99829.66;5064563;28;20120;-84
2023/12/23 02:04:44;;;;;;;10.30;2.40;;;8.10;99.90;;;8.23;82.73;99824.97;5039600;28;20048;-85
2023/12/23 02:07:11;;;;;;;7.95;1.40;;;8.10;99.90;;;8.18;82.90;99838.88;5056343;28;20064;-85
2023/12/23 02:09:39;;;;;;;10.10;1.52;;;8.00;99.90;;;8.19;82.95;99832.53;5072645;28;20144;-85
2023/12/23 02:12:16;;;;;;;7.63;1.55;;;8.10;99.90;;;8.18;83.02;99830.91;5090090;28;20450;-85
2023/12/23 02:14:52;;;;;;;13.30;1.83;;;8.10;99.90;;;8.17;83.01;99825.81;5074868;28;20048;-84
2023/12/23 02:17:21;;;;;;;7.70;1.42;;;8.00;99.90;;;8.19;83.39;99831.72;5076568;28;20082;-84
2023/12/23 02:19:48;;;;;;;11.55;2.35;;;8.00;99.90;;;8.21;83.37;99819.88;5060178;28;20427;-84
2023/12/23 02:22:18;;;;;;;9.98;2.22;;;8.00;99.90;;;8.22;83.42;99818.03;5076834;28;20450;-84
2023/12/23 02:24:46;;;;;;;10.63;1.50;;;8.10;99.90;;;8.23;83.50;99823.13;5076227;28;20040;-85
2023/12/23 02:27:20;;;;;;;11.77;1.88;;;8.20;99.90;;;8.22;83.39;99813.53;5078215;28;20060;-85
2023/12/23 02:29:48;;;;;;;12.93;1.55;;;8.10;99.90;;;8.24;83.36;99808.81;5077577;28;20045;-84
2023/12/23 02:32:17;;;;;;;9.80;1.45;;;8.10;99.90;;;8.25;83.49;99812.31;5060078;28;20159;-85
2023/12/23 02:34:46;;;;;;;7.75;1.60;;;8.10;99.90;;;8.25;83.37;99799.03;5076578;28;20058;-85
2023/12/23 02:37:13;;;;;;;11.77;1.73;;;8.10;99.90;;;8.26;83.26;99798.00;5059640;28;20048;-85
2023/12/23 02:39:42;;;;;;;12.57;1.67;;;8.10;99.90;;;8.28;83.21;99793.28;5076778;28;20040;-84
2023/12/23 02:42:09;;;;;;;12.60;1.60;;;8.10;99.90;;;8.26;83.38;99788.19;5060173;28;20044;-84
2023/12/23 02:44:37;;;;;;;14.45;1.88;;;8.10;99.90;;;8.26;83.29;99779.41;5078231;28;20115;-85
2023/12/23 02:47:05;;;;;;;9.20;1.65;;;8.10;99.90;;;8.26;83.32;99771.44;5075992;28;20102;-85
2023/12/23 02:49:32;;;;;;;12.52;2.10;;;8.10;99.90;;;8.25;83.59;99765.31;5076005;28;20041;-84
2023/12/23 02:51:59;;;;;;;7.63;1.65;;;8.10;99.90;;;8.21;83.60;99763.28;5059855;28;20446;-84
2023/12/23 02:54:27;;;;;;;10.52;1.63;;;8.00;99.90;;;8.20;83.77;99746.53;5059340;28;20036;-85
2023/12/23 02:56:56;;;;;;;9.82;1.55;;;8.10;99.90;;;8.21;83.95;99745.50;5059808;28;20051;-84
2023/12/23 02:59:23;;;;;;;9.82;1.67;;;8.10;99.90;;;8.22;83.84;99739.16;5030529;28;20127;-85
2023/12/23 03:01:51;;;;;;;7.22;2.00;;;8.10;99.90;;;8.23;84.11;99735.47;5076018;28;20063;-85
2023/12/23 03:04:19;;;;;;;7.82;1.55;;;8.10;99.90;;;8.25;84.16;99711.38;5076262;28;20064;-84
2023/12/23 03:06:46;;;;;;;13.15;2.30;;;8.10;99.90;;;8.28;84.00;99721.53;5077410;28;20159;-85
2023/12/23 03:09:14;;;;;;;10.77;2.67;;;8.10;99.90;;;8.29;84.12;99714.38;5077541;28;20033;-84
2023/12/23 03:11:41;;;;;;;9.15;3.00;;;8.10;99.90;;;8.17;84.42;99724.91;5076095;28;20048;-84
2023/12/23 03:14:10;;;;;;;13.98;3.88;;;8.10;99.90;;;8.13;85.00;99715.72;5060411;28;20094;-84
2023/12/23 03:16:39;;;;;;;12.38;3.75;;;8.00;99.90;;;8.11;85.13;99704.50;5056121;28;20060;-84
2023/12/23 03:19:09;;;;;;;14.02;4.15;;;8.00;99.90;;;8.08;85.36;99695.13;5077419;28;20558;-85
2023/12/23 03:21:43;;;;;;;8.02;4.38;;;8.00;99.90;;;8.12;85.74;99695.50;5075378;28;20507;-86
2023/12/23 03:24:11;;;;;;;12.80;4.80;;;8.00;99.90;;;8.11;85.87;99684.06;5075123;28;20059;-84
2023/12/23 03:26:39;;;;;;;11.80;5.13;;;8.00;99.90;;;8.10;86.50;99676.31;5055647;28;20053;-84
2023/12/23 03:29:06;;;;;;;14.80;6.07;;;8.00;99.90;;;8.12;86.63;99672.41;5075320;28;20036;-84
2023/12/23 03:31:35;;;;;;;16.20;7.10;;;8.00;99.90;;;8.17;86.60;99669.94;5059496;28;20083;-84
2023/12/23 03:34:03;;;;;;;20.13;9.02;;;8.10;99.90;;;8.17;86.62;99658.50;5075168;28;20063;-84
2023/12/23 03:36:30;;;;;;;16.10;8.73;;;8.10;99.90;;;8.12;87.04;99653.03;5075817;28;20120;-84
2023/12/23 03:38:58;;;;;;;24.05;8.98;;;8.10;99.90;;;8.13;87.36;99649.34;5077197;28;20041;-84
2023/12/23 03:41:25;;;;;;;18.80;8.38;;;8.10;99.90;;;8.08;87.95;99641.19;5075853;28;20048;-84
2023/12/23 03:43:53;;;;;;;11.80;7.18;;;8.10;99.90;;;8.06;88.51;99649.38;5058839;28;20041;-84
2023/12/23 03:46:20;;;;;;;13.27;6.88;;;8.10;99.90;;;8.03;89.02;99633.06;5076786;28;20040;-84
2023/12/23 03:48:50;;;;;;;10.98;6.45;;;8.10;99.90;;;7.99;89.51;99632.66;5076558;28;20036;-85
2023/12/23 03:51:17;;;;;;;17.35;6.85;;;8.00;99.90;;;7.92;90.33;99637.22;5058817;28;20040;-86
2023/12/23 03:53:45;;;;;;;16.98;7.65;;;8.10;99.90;;;7.92;90.99;99638.03;5075570;28;20041;-84
2023/12/23 03:56:12;;;;;;;13.32;7.53;;;8.10;99.90;;;7.96;91.18;99638.44;5073672;28;20143;-84
2023/12/23 03:58:41;;;;;;;15.50;8.60;;;8.10;99.90;;;7.88;92.23;99631.53;5073508;28;20057;-84
2023/12/23 04:01:08;;;;;;;17.50;8.50;;;8.10;99.90;;;7.93;92.50;99630.88;5074345;28;20102;-85
2023/12/23 04:03:35;;;;;;;23.35;9.55;;;8.10;99.90;;;7.94;92.90;99625.34;5074188;28;20052;-84
2023/12/23 04:06:05;;;;;;;19.95;9.32;;;8.10;99.90;;;7.94;93.47;99619.22;5073600;28;20143;-85
2023/12/23 04:08:34;;;;;;;21.13;9.45;;;8.10;99.90;;;7.98;93.53;99615.13;5057437;28;20201;-84
2023/12/23 04:11:02;;;;;;;26.38;9.35;;;8.10;99.90;;;8.00;93.84;99619.19;5057024;28;21013;-85
2023/12/23 04:13:30;;;;;;;20.83;9.65;;;8.20;99.90;;;8.08;94.30;99601.38;5073699;28;20566;-84
2023/12/23 04:15:57;;;;;;;22.05;8.50;;;8.20;99.90;;;8.09;94.45;99605.63;5073904;28;20076;-84
2023/12/23 04:18:24;;;;;;;18.23;8.52;;;8.20;99.90;;;8.10;94.72;99608.09;5091008;28;20052;-84
2023/12/23 04:20:52;;;;;;;18.65;8.98;;;8.40;99.90;;;8.14;94.83;99597.84;5074407;28;20132;-84
2023/12/23 04:23:21;;;;;;;23.35;9.20;;;8.30;99.90;;;8.18;94.91;99593.72;5090460;28;20511;-85
2023/12/23 04:25:48;;;;;;;25.98;9.13;;;8.30;99.90;;;8.16;95.29;99591.28;5083489;28;20423;-84
2023/12/23 04:28:20;;;;;;;18.60;8.13;;;8.40;99.90;;;8.17;95.86;99587.59;5086157;28;20045;-84
2023/12/23 04:30:48;;;;;;;19.35;8.38;;;8.40;99.90;;;8.17;96.26;99592.91;5038374;28;20393;-84
2023/12/23 04:33:15;;;;;;;26.27;9.30;;;8.40;99.90;;;8.23;96.48;99581.41;5070361;28;20053;-84
2023/12/23 04:35:43;;;;;;;20.48;8.57;;;8.50;99.90;;;8.26;96.59;99581.00;5064924;28;20478;-84
2023/12/23 04:38:13;;;;;;;29.20;10.05;;;8.50;99.90;;;8.27;96.68;99577.28;5073415;28;20041;-84
2023/12/23 04:40:41;;;;;;;23.45;9.75;;;8.50;99.90;;;8.29;97.02;99577.06;5075416;28;20040;-84
2023/12/23 04:43:09;;;;;;;21.17;10.02;;;8.50;99.90;;;8.32;97.22;99566.00;5073541;28;20078;-84
2023/12/23 04:45:36;;;;;;;23.92;10.55;;;8.60;99.90;;;8.34;96.99;99571.91;5073022;28;20049;-84
2023/12/23 04:48:04;;;;;;;22.50;10.48;;;8.60;99.90;;;8.33;96.98;99580.91;5057231;28;20542;-84
2023/12/23 04:50:32;;;;;;;22.67;10.50;;;8.60;99.90;;;8.38;96.92;99572.31;5073756;28;20040;-84
2023/12/23 04:52:59;;;;;;;29.58;12.07;;;8.60;99.90;;;8.42;96.95;99569.00;5075521;28;20055;-85
2023/12/23 04:55:28;;;;;;;28.20;12.55;;;8.60;99.90;;;8.39;96.88;99573.94;5057882;28;20053;-84
2023/12/23 04:57:57;;;;;;;25.95;13.00;;;8.60;99.90;;;8.40;96.87;99578.25;5074524;28;20063;-84
2023/12/23 05:00:25;;;;;;;23.23;12.38;;;8.60;99.90;;;8.43;96.73;99575.94;5073423;28;20045;-84
2023/12/23 05:02:52;;;;;;;24.33;12.15;;;8.60;99.90;;;8.43;96.79;99560.00;5057284;28;20074;-85
2023/12/23 05:05:22;;;;;;;23.75;13.48;;;8.60;99.90;;;8.38;96.52;99561.69;5074594;28;20487;-84
2023/12/23 05:07:50;;;;;;;26.55;15.18;;;8.60;99.90;;;8.39;96.80;99547.38;5073602;28;20098;-84
2023/12/23 05:10:23;;;;;;;27.70;14.60;;;8.60;99.90;;;8.34;96.76;99533.91;5056614;28;20090;-84
2023/12/23 05:12:50;;;;;;;25.27;13.90;;;8.60;99.90;;;8.32;96.91;99535.97;5057521;28;20592;-84
2023/12/23 05:15:21;;;;;;;26.48;13.52;;;8.60;99.90;;;8.36;96.91;99543.31;5074910;28;20054;-84
2023/12/23 05:17:48;;;;;;;31.77;15.27;;;8.60;99.90;;;8.36;96.82;99538.00;5057265;28;20047;-85
2023/12/23 05:20:15;;;;;;;26.60;13.80;;;8.60;99.90;;;8.40;96.74;99535.75;5056858;28;20131;-84
2023/12/23 05:22:43;;;;;;;24.02;12.32;;;8.60;99.90;;;8.33;96.52;99543.72;5073440;28;20044;-84
2023/12/23 05:25:11;;;;;;;26.65;13.55;;;8.60;99.90;;;8.34;96.56;99555.16;5056892;28;20098;-84
2023/12/23 05:27:39;;;;;;;20.33;11.80;;;8.60;99.90;;;8.34;96.71;99550.66;5073488;28;20496;-84
2023/12/23 05:30:08;;;;;;;28.75;12.45;;;8.60;99.90;;;8.34;96.43;99531.25;5056539;28;20388;-84
2023/12/23 05:32:37;;;;;;;26.90;13.98;;;8.60;99.90;;;8.31;96.42;99540.47;5073086;28;20507;-84
2023/12/23 05:35:07;;;;;;;22.00;12.48;;;8.60;99.90;;;8.35;96.55;99541.69;5074348;28;20111;-84
2023/12/23 05:37:34;;;;;;;27.67;13.02;;;8.60;99.90;;;8.40;96.23;99533.09;5073596;28;20131;-84
2023/12/23 05:40:04;;;;;;;32.17;14.35;;;8.60;99.90;;;8.43;96.04;99530.78;5039540;28;20131;-84
2023/12/23 05:42:32;;;;;;;26.02;12.65;;;8.60;99.90;;;8.41;95.75;99534.69;5073392;28;20045;-83
2023/12/23 05:44:59;;;;;;;29.75;13.02;;;8.60;99.90;;;8.39;95.85;99547.38;5074062;28;20075;-83
2023/12/23 05:47:29;;;;;;;32.35;13.00;;;8.60;99.90;;;8.38;95.88;99543.09;5074659;28;20047;-84
2023/12/23 05:49:58;;;;;;;26.42;12.10;;;8.60;99.90;;;8.43;95.53;99533.44;5079687;28;20104;-84
2023/12/23 05:52:25;;;;;;;27.70;11.68;;;8.60;99.90;;;8.35;95.40;99533.72;5081697;28;20040;-85
2023/12/23 05:54:53;;;;;;;27.73;12.40;;;8.60;99.90;;;8.35;95.79;99538.22;5068567;28;20419;-86
2023/12/23 05:57:23;;;;;;;28.77;12.68;;;8.60;99.90;;;8.34;95.92;99558.63;5084067;28;20064;-85
2023/12/23 05:59:51;;;;;;;23.73;10.40;;;8.60;99.90;;;8.33;95.95;99548.22;5083824;28;20048;-85
2023/12/23 06:02:19;;;;;;;22.58;10.23;;;8.60;99.90;;;8.36;95.64;99543.31;5065427;28;20135;-83
2023/12/23 06:04:48;;;;;;;22.20;9.57;;;8.60;99.90;;;8.36;95.69;99550.47;5083617;28;20048;-84
2023/12/23 06:07:18;;;;;;;26.45;9.05;;;8.60;99.90;;;8.34;95.80;99558.63;5082683;28;20036;-85
2023/12/23 06:09:45;;;;;;;24.27;9.10;;;8.60;99.90;;;8.41;95.55;99553.28;5081824;28;20456;-84
2023/12/23 06:12:13;;;;;;;28.05;10.02;;;8.60;99.90;;;8.44;95.32;99544.88;5080738;28;20100;-84
2023/12/23 06:14:43;;;;;;;18.75;8.75;;;8.60;99.90;;;8.42;94.67;99555.72;5080340;28;20098;-83
2023/12/23 06:17:14;;;;;;;24.37;9.33;;;8.60;99.90;;;8.45;94.68;99554.50;5080332;28;20405;-84
2023/12/23 06:19:42;;;;;;;24.23;8.75;;;8.70;99.90;;;8.48;94.73;99548.72;5083471;28;20462;-85
2023/12/23 06:22:09;;;;;;;16.88;8.07;;;8.70;99.90;;;8.48;94.55;99546.06;5084379;28;20076;-87
2023/12/23 06:24:38;;;;;;;23.30;9.70;;;8.70;99.90;;;8.48;94.29;99559.34;5082515;28;20052;-85
2023/12/23 06:27:06;;;;;;;22.73;8.70;;;8.70;99.90;;;8.45;94.31;99541.19;5079699;28;20600;-86
2023/12/23 06:29:33;;;;;;;27.15;9.50;;;8.70;99.90;;;8.43;94.46;99541.41;5076459;28;20472;-84
2023/12/23 06:32:02;;;;;;;21.98;10.00;;;8.70;99.90;;;8.42;94.59;99536.31;5059769;28;20040;-84
2023/12/23 06:34:29;;;;;;;17.17;9.30;;;8.60;99.90;;;8.39;94.83;99515.50;5043312;28;20051;-84
2023/12/23 06:36:56;;;;;;;17.95;9.20;;;8.60;99.90;;;8.44;94.96;99532.44;5074955;28;20053;-84
2023/12/23 06:39:25;;;;;;;22.77;10.68;;;8.60;99.90;;;8.42;94.72;99531.00;5077606;28;20056;-85
2023/12/23 06:41:53;;;;;;;24.48;10.13;;;8.60;99.90;;;8.43;94.98;99527.31;5040502;28;20132;-84
2023/12/23 06:44:21;;;;;;;23.92;10.27;;;8.70;99.90;;;8.44;94.81;99531.59;5057613;28;20072;-84
2023/12/23 06:46:48;;;;;;;24.73;10.13;;;8.70;99.90;;;8.46;94.80;99521.56;5058867;28;20048;-85
2023/12/23 06:49:19;;;;;;;23.65;9.55;;;8.70;99.90;;;8.46;94.91;99518.91;5058600;28;20416;-85
2023/12/23 06:51:46;;;;;;;16.27;8.45;;;8.70;99.90;;;8.48;94.61;99524.81;5058197;28;20037;-84
2023/12/23 06:54:13;;;;;;;27.95;9.45;;;8.70;99.90;;;8.44;94.83;99516.47;5023131;28;20049;-84
2023/12/23 06:56:41;;;;;;;20.88;8.13;;;8.70;99.90;;;8.41;94.84;99524.88;5090325;28;20052;-84
2023/12/23 06:59:12;;;;;;;21.88;8.23;;;8.70;99.90;;;8.44;94.84;99520.97;5055820;28;20048;-84
2023/12/23 07:01:40;;;;;;;19.50;7.82;;;8.70;99.90;;;8.48;94.78;99527.47;5057959;28;20166;-84
2023/12/23 07:04:08;;;;;;;16.02;7.30;;;8.70;99.90;;;8.47;94.73;99521.34;5090659;28;20079;-84
2023/12/23 07:06:37;;;;;;;16.63;8.57;;;8.70;99.90;;;8.50;94.81;99520.09;5058468;28;20045;-84
2023/12/23 07:09:04;;;;;;;17.42;7.60;;;8.70;99.90;;;8.47;94.79;99516.03;5057970;28;20885;-84
2023/12/23 07:11:31;;;;;;;22.50;7.57;;;8.70;99.90;;;8.49;95.02;99511.31;5058562;28;20451;-85
2023/12/23 07:13:59;;;;;;;20.65;7.78;;;8.70;99.90;;;8.44;95.18;99513.00;5057247;28;20069;-85
2023/12/23 07:16:28;;;;;;;20.73;8.20;;;8.70;99.90;;;8.46;95.37;99509.09;5058282;28;20516;-85
2023/12/23 07:18:55;;;;;;;21.65;7.90;;;8.70;99.90;;;8.44;95.64;99515.66;5058235;28;20048;-85
2023/12/23 07:21:23;;;;;;;16.95;7.32;;;8.70;99.90;;;8.44;95.63;99497.88;5056633;28;20124;-86
2023/12/23 07:23:50;;;;;;;21.98;7.47;;;8.70;99.90;;;8.43;95.79;99522.81;5055531;28;20471;-86
2023/12/23 07:26:18;;;;;;;20.52;6.90;;;8.70;99.90;;;8.42;95.93;99523.84;5056350;28;20044;-86
2023/12/23 07:28:46;;;;;;;20.67;6.70;;;8.70;99.90;;;8.47;95.94;99541.78;5055459;28;20072;-86
2023/12/23 07:31:13;;;;;;;15.52;6.25;;;8.70;99.90;;;8.49;96.04;99537.88;5058762;28;20037;-85
2023/12/23 07:33:42;;;;;;;21.58;6.43;;;8.70;99.90;;;8.51;96.16;99519.06;5057784;28;20071;-87
2023/12/23 07:36:10;;;;;;;20.27;6.82;;;8.70;99.90;;;8.50;95.99;99512.13;5057664;28;20606;-86
2023/12/23 07:38:40;;;;;;;13.50;5.75;;;8.70;99.90;;;8.52;95.93;99523.34;5057847;28;20045;-85
2023/12/23 07:41:09;;;;;;;24.83;7.10;;;8.70;99.90;;;8.50;95.87;99518.25;5038985;28;20052;-86
2023/12/23 07:43:37;;;;;;;20.00;6.70;;;8.70;99.90;;;8.52;95.99;99520.69;5056610;28;20103;-85
2023/12/23 07:46:05;;;;;;;14.70;6.50;;;8.70;99.90;;;8.54;95.87;99521.28;5056955;28;20049;-84
2023/12/23 07:48:32;;;;;;;16.08;6.57;;;8.70;99.90;;;8.54;95.79;99537.22;5072249;28;20051;-85
2023/12/23 07:51:07;;;;;;;18.40;6.05;;;8.70;99.90;;;8.57;95.97;99544.75;5088636;28;20095;-86
2023/12/23 07:53:34;;;;;;;14.65;6.03;;;8.70;99.90;;;8.57;96.01;99535.97;5057377;28;20500;-85
2023/12/23 07:56:06;;;;;;;15.35;5.43;;;8.80;99.90;;;8.59;96.28;99545.34;5057624;28;20045;-86
2023/12/23 07:58:38;;;;;;;17.42;5.55;;;8.70;99.90;;;8.53;96.35;99543.56;5067096;28;20045;-85
2023/12/23 08:01:08;;;;;;;18.02;6.10;;;8.70;99.90;;;8.54;96.37;99529.25;5075103;28;20589;-86
2023/12/23 08:03:35;;;;;;;19.10;6.20;;;8.70;99.90;;;8.56;96.43;99527.19;5058134;28;20056;-85
2023/12/23 08:06:05;;;;;;;19.02;6.05;;;8.70;99.90;;;8.57;96.58;99531.44;5074104;28;20044;-85
2023/12/23 08:08:33;;;;;;;15.20;5.85;;;8.80;99.90;;;8.48;97.04;99535.44;5070347;28;20044;-84
2023/12/23 08:11:01;;;;;;;24.85;6.38;;;8.80;99.90;;;8.50;97.42;99560.75;5075652;28;20076;-85
2023/12/23 08:13:29;;;;;;;15.93;5.78;;;8.70;99.90;;;8.55;97.58;99546.81;5073800;28;20047;-83
2023/12/23 08:15:56;;;;;;;17.88;5.80;;;8.80;99.90;;;8.51;97.27;99529.69;5074030;28;20041;-85
2023/12/23 08:18:27;;;;;;;24.73;5.50;;;8.80;99.90;;;8.55;97.17;99535.38;5007827;28;20103;-82
2023/12/23 08:20:54;;;;;;;17.30;5.35;;;8.80;99.90;;;8.54;97.22;99565.63;5072893;28;20047;-83
2023/12/23 08:23:23;;;;;;;20.52;5.72;;;8.80;99.90;;;8.54;97.29;99547.84;5049148;28;20045;-83
2023/12/23 08:25:51;;;;;;;18.05;5.82;;;8.80;99.90;;;8.54;97.51;99545.19;5088440;28;20404;-83
2023/12/23 08:28:19;;;;;;;25.58;5.75;;;8.80;99.90;;;8.51;97.48;99545.63;5070412;28;20068;-84
2023/12/23 08:30:47;;;;;;;17.25;5.10;;;8.80;99.90;;;8.54;97.67;99550.50;5057711;28;20044;-83
2023/12/23 08:33:14;;;;;;;21.17;5.88;;;8.80;99.90;;;8.52;97.62;99547.25;5076204;28;20056;-84
2023/12/23 08:35:42;;;;;;;22.95;5.60;;;8.80;99.90;;;8.57;97.65;99543.94;5074330;28;20068;-84
2023/12/23 08:38:10;;;;;;;21.75;5.53;;;8.80;99.90;;;8.58;97.72;99551.69;5075165;28;20415;-84
2023/12/23 08:40:39;;;;;;;17.15;4.68;;;8.80;99.90;;;8.59;97.82;99553.31;5075281;28;20048;-84
2023/12/23 08:43:06;;;;;;;16.38;5.35;;;8.80;99.90;;;8.57;97.61;99542.09;5073984;28;20595;-83
2023/12/23 08:45:34;;;;;;;16.42;4.95;;;8.80;99.90;;;8.59;97.60;99545.34;5076244;28;20098;-83
2023/12/23 08:48:02;;;;;;;21.00;5.47;;;8.80;99.90;;;8.62;97.32;99557.38;5075154;28;20041;-83
2023/12/23 08:50:29;;;;;;;19.70;5.43;;;8.80;99.90;;;8.67;97.32;99566.31;5075516;28;20054;-85
2023/12/23 08:52:57;;;;;;;14.18;4.25;;;8.90;99.90;;;8.71;96.92;99572.00;5056855;28;20054;-85
2023/12/23 08:55:25;;;;;;;15.40;4.47;;;8.90;99.90;;;8.70;96.62;99570.38;5075401;28;20040;-85
2023/12/23 08:57:54;;;;;;;14.75;4.47;;;8.90;99.90;;;8.69;96.48;99558.94;5074775;28;20046;-84
2023/12/23 09:00:21;;;;;;;21.58;4.50;;;8.90;99.90;;;8.68;95.76;99575.91;5072865;28;20040;-84
2023/12/23 09:02:49;;;;;;;19.02;4.13;;;8.90;99.90;;;8.70;95.79;99570.38;5074792;28;20048;-84
2023/12/23 09:05:16;;;;;;;17.15;3.70;;;8.90;99.90;;;8.69;96.10;99585.53;5074712;28;20082;-86
2023/12/23 09:07:44;;;;;;;16.65;4.20;;;8.90;99.90;;;8.71;95.91;99579.97;5075291;28;20051;-84
2023/12/23 09:10:12;;;;;;;15.55;3.83;;;8.90;99.90;;;8.73;95.89;99569.91;5074469;28;20052;-84
2023/12/23 09:12:39;;;;;;;19.17;4.78;;;8.90;99.90;;;8.75;95.91;99573.19;5076558;28;20041;-84
2023/12/23 09:15:09;;;;;;;18.42;3.58;;;8.90;99.90;;;8.72;95.31;99561.13;5058495;28;20135;-84
2023/12/23 09:17:37;;;;;;;14.82;3.15;;;9.00;99.90;;;8.74;95.00;99572.38;5075361;28;20040;-86
2023/12/23 09:20:08;;;;;;;15.05;3.72;;;9.00;99.90;;;8.73;94.61;99576.03;5073216;28;20052;-86
2023/12/23 09:22:36;;;;;;;17.67;3.72;;;9.00;99.90;;;8.76;94.41;99582.78;5072685;28;20503;-85
2023/12/23 09:25:05;;;;;;;18.35;3.05;;;9.00;99.90;;;8.76;94.12;99578.28;5074236;28;20068;-84
2023/12/23 09:27:34;;;;;;;17.50;3.10;;;9.00;99.90;;;8.76;94.22;99591.56;5056422;28;20045;-84
2023/12/23 09:30:01;;;;;;;12.52;3.17;;;9.10;99.90;;;8.81;94.08;99582.13;5055619;28;20523;-84
2023/12/23 09:32:30;;;;;;;11.55;3.17;;;9.10;99.90;;;8.83;93.58;99574.72;5073516;28;20064;-83
2023/12/23 09:34:58;;;;;;;14.25;3.13;;;9.10;99.90;;;8.83;93.03;99590.66;5073744;28;20033;-84
2023/12/23 09:37:25;;;;;;;15.43;2.83;;;9.10;99.90;;;8.86;92.92;99592.91;5072787;28;20111;-85
2023/12/23 09:39:54;;;;;;;18.17;3.05;;;9.10;99.90;;;8.88;92.37;99588.16;5074196;28;20115;-84
2023/12/23 09:42:23;;;;;;;20.63;3.15;;;9.10;99.90;;;8.90;92.49;99602.06;5072302;28;20059;-86
2023/12/23 09:44:51;;;;;;;15.68;3.00;;;9.10;99.90;;;8.89;91.89;99603.09;5055790;28;20104;-84
2023/12/23 09:47:19;;;;;;;12.88;2.80;;;9.10;99.90;;;8.87;91.51;99607.81;5073552;28;20419;-85
2023/12/23 09:49:48;;;;;;;17.25;3.10;;;9.10;99.90;;;8.89;91.86;99611.06;5073915;28;20500;-84
2023/12/23 09:52:16;;;;;;;17.08;2.88;;;9.20;99.90;;;8.94;91.93;99613.88;5021836;28;20422;-84
2023/12/23 09:54:51;;;;;;;17.25;2.55;;;9.20;99.90;;;8.92;91.38;99615.94;5073278;28;20106;-84
2023/12/23 09:57:22;;;;;;;9.82;2.28;;;9.20;99.90;;;8.93;91.33;99606.91;5072420;28;20143;-85
2023/12/23 09:59:52;;;;;;;13.63;2.88;;;9.20;99.90;;;8.93;91.54;99605.09;5055465;28;20079;-85
2023/12/23 10:02:19;;;;;;;13.57;2.95;;;9.20;99.90;;;8.94;90.96;99598.75;5072417;28;20068;-85
2023/12/23 10:04:48;;;;;;;17.85;2.88;;;9.20;99.90;;;8.98;90.63;99601.78;5071904;28;20135;-85
2023/12/23 10:07:16;;;;;;;15.68;2.70;;;9.20;99.90;;;8.97;90.62;99605.44;5072553;28;20045;-84
2023/12/23 10:09:44;;;;;;;14.30;2.75;;;9.20;99.90;;;8.99;90.47;99614.03;5072801;28;20411;-84
2023/12/23 10:12:11;;;;;;;14.70;2.63;;;9.20;99.90;;;8.97;90.18;99616.88;5072986;28;20094;-84
2023/12/23 10:14:41;;;;;;;12.90;2.63;;;9.20;99.90;;;8.97;90.67;99618.75;5071120;28;20397;-83
2023/12/23 10:17:09;;;;;;;14.57;2.80;;;9.20;99.90;;;8.97;90.94;99621.41;5055573;28;20080;-84
2023/12/23 10:19:36;;;;;;;13.60;2.53;;;9.20;99.90;;;8.94;91.51;99619.22;5053825;28;20044;-85
2023/12/23 10:22:05;;;;;;;10.43;2.30;;;9.20;99.90;;;8.97;91.59;99630.19;5053080;28;20080;-84
2023/12/23 10:24:33;;;;;;;11.60;2.50;;;9.20;99.90;;;8.95;91.62;99618.97;5068617;28;20063;-83
2023/12/23 10:27:02;;;;;;;11.05;2.47;;;9.20;99.90;;;8.94;92.03;99619.22;5073538;28;20123;-84
2023/12/23 10:29:34;;;;;;;16.50;2.83;;;9.20;99.90;;;8.93;91.48;99628.19;5055580;28;20150;-83